Edgeworth, Pennsylvania
Current Conditions -  °F | °C
As of 6:51 PM on Sunday 25 Jan 2015 (Local Time) from KPIT Reporting Station
Light Snow Light Snow  
Wind Chill: 24°   Ceiling: 900
Heat Index: 31°   Visibility: 1.5mi
Dew Point: 30°   Wind: 7mph
Humidity: 96%   Direction: 60°ENE
Pressure: 29.78"   Gusts: NA
Location:  40.5741°N, 80.1457°W
Report Text: KPIT 252351Z 06006KT 1 1/2SM -SN BR FEW005 OVC009 M01/M01 A2978 RMK AO2 SLP105 P0002 60006 T10061011 10017 21006 53007
Loading
Personal Weather Stations






























Interactive Weather Map New forecast layout! Learn more

10-Day Weather Forecast

Advertisements
Track Severe Weather on mobile